createdAt,value
2019-04-14T00:02:27.167Z,17.20
2019-04-14T00:05:01.871Z,17.93
2019-04-14T00:07:31.894Z,18.13
2019-04-14T00:10:05.507Z,18.03
2019-04-14T00:12:34.491Z,18.27
2019-04-14T00:15:23.299Z,18.07
2019-04-14T00:17:43.478Z,17.90
2019-04-14T00:20:12.700Z,17.63
2019-04-14T00:22:42.492Z,18.23
2019-04-14T00:25:12.910Z,17.90
2019-04-14T00:27:47.936Z,18.10
2019-04-14T00:30:22.923Z,18.17
2019-04-14T00:32:57.432Z,16.70
2019-04-14T00:35:34.661Z,18.10
2019-04-14T00:38:41.299Z,17.83
2019-04-14T00:41:36.225Z,17.27
2019-04-14T00:44:18.913Z,18.53
2019-04-14T00:47:05.026Z,17.23
2019-04-14T00:49:37.607Z,17.63
2019-04-14T00:52:10.025Z,18.33
2019-04-14T00:54:39.569Z,16.17
2019-04-14T00:57:11.565Z,16.63
2019-04-14T00:59:40.598Z,17.30
2019-04-14T01:02:09.903Z,18.10
2019-04-14T01:04:42.662Z,17.40
2019-04-14T01:07:11.543Z,17.73
2019-04-14T01:09:44.842Z,17.27
2019-04-14T01:12:16.994Z,17.77
2019-04-14T01:14:47.403Z,18.70
2019-04-14T01:17:17.733Z,18.57
2019-04-14T01:19:46.596Z,17.83
2019-04-14T01:22:16.557Z,17.87
2019-04-14T01:24:48.970Z,18.17
2019-04-14T01:27:19.041Z,18.67
2019-04-14T01:29:49.445Z,18.93
2019-04-14T01:32:19.653Z,19.07
2019-04-14T01:34:52.826Z,19.17
2019-04-14T01:37:26.935Z,19.40
2019-04-14T01:39:56.708Z,20.07
2019-04-14T01:42:29.083Z,19.90
2019-04-14T01:44:59.293Z,18.97
2019-04-14T01:47:31.360Z,20.33
2019-04-14T01:50:03.813Z,20.40
2019-04-14T01:53:07.578Z,20.40
2019-04-14T01:55:46.641Z,20.10
2019-04-14T01:58:25.705Z,21.63
2019-04-14T02:01:13.489Z,20.77
2019-04-14T02:03:45.552Z,21.47
2019-04-14T02:06:17.879Z,22.33
2019-04-14T02:08:48.034Z,21.00
2019-04-14T02:11:18.790Z,21.20
2019-04-14T02:13:48.581Z,21.87
2019-04-14T02:16:32.338Z,20.40
2019-04-14T02:18:56.867Z,21.13
2019-04-14T02:21:26.288Z,21.17
2019-04-14T02:23:56.146Z,20.93
2019-04-14T02:26:26.264Z,20.33
2019-04-14T02:28:55.260Z,20.13
2019-04-14T02:31:54.976Z,21.30
2019-04-14T02:35:28.493Z,19.93
2019-04-14T02:36:58.481Z,21.07
2019-04-14T02:44:31.548Z,21.30
2019-04-14T02:47:03.441Z,21.27
2019-04-14T02:52:01.899Z,21.43
2019-04-14T02:54:37.375Z,20.97
2019-04-14T02:57:03.652Z,21.00
2019-04-14T02:59:29.122Z,21.10
2019-04-14T03:04:33.542Z,21.47
2019-04-14T03:07:14.327Z,21.87
2019-04-14T03:12:11.444Z,21.80
2019-04-14T03:14:50.329Z,21.93
2019-04-14T03:17:49.316Z,23.30
2019-04-14T03:20:47.611Z,23.67
2019-04-14T03:25:41.410Z,22.60
2019-04-14T03:28:36.474Z,22.73
2019-04-14T03:31:31.633Z,24.10
2019-04-14T03:34:06.250Z,24.20
2019-04-14T03:36:49.760Z,23.33
2019-04-14T03:38:36.552Z,23.40
2019-04-14T03:43:38.698Z,23.17
2019-04-14T03:46:17.813Z,24.57
2019-04-14T03:53:47.022Z,21.83
2019-04-14T03:56:29.157Z,22.53
2019-04-14T03:58:58.209Z,23.87
2019-04-14T04:01:27.986Z,23.37
2019-04-14T04:03:58.516Z,23.60
2019-04-14T04:06:27.549Z,24.00
2019-04-14T04:08:57.377Z,23.50
2019-04-14T04:11:26.533Z,23.07
2019-04-14T04:13:56.371Z,24.93
2019-04-14T04:16:41.935Z,24.80
2019-04-14T04:19:19.634Z,24.43
2019-04-14T04:22:04.235Z,24.80
2019-04-14T04:24:41.122Z,24.00
2019-04-14T04:27:38.081Z,25.47
2019-04-14T04:30:34.084Z,23.50
2019-04-14T04:33:19.890Z,24.70
2019-04-14T04:35:52.832Z,24.17
2019-04-14T04:38:46.326Z,24.73
2019-04-14T04:41:16.749Z,24.97
2019-04-14T04:43:47.334Z,24.63
2019-04-14T04:46:17.599Z,25.37
2019-04-14T04:48:58.309Z,25.40
2019-04-14T04:51:18.194Z,24.13
2019-04-14T04:53:48.351Z,24.30
2019-04-14T04:56:20.790Z,24.17
2019-04-14T04:58:50.185Z,24.70
2019-04-14T05:01:19.257Z,26.10
2019-04-14T05:03:49.280Z,25.33
2019-04-14T05:06:57.077Z,25.07
2019-04-14T05:09:44.848Z,23.50
2019-04-14T05:12:39.183Z,24.30
2019-04-14T05:15:27.099Z,24.40
2019-04-14T05:17:55.980Z,24.63
2019-04-14T05:20:27.155Z,24.87
2019-04-14T05:22:57.165Z,25.07
2019-04-14T05:25:27.309Z,26.33
2019-04-14T05:27:57.948Z,25.73
2019-04-14T05:30:27.141Z,25.20
2019-04-14T05:32:56.659Z,26.40
2019-04-14T05:35:27.012Z,24.80
2019-04-14T05:37:59.670Z,25.57
2019-04-14T05:40:29.980Z,24.97
2019-04-14T05:43:00.159Z,24.40
2019-04-14T05:45:31.107Z,23.90
2019-04-14T05:48:01.381Z,24.70
2019-04-14T05:50:31.579Z,25.03
2019-04-14T05:53:02.462Z,23.47
2019-04-14T05:55:32.682Z,22.67
2019-04-14T05:58:03.624Z,23.93
2019-04-14T06:00:34.220Z,23.63
2019-04-14T06:03:05.994Z,23.00
2019-04-14T06:05:36.073Z,23.10
2019-04-14T06:08:05.246Z,24.43
2019-04-14T06:10:34.851Z,24.07
2019-04-14T06:13:06.674Z,21.20
2019-04-14T06:15:36.493Z,22.33
2019-04-14T06:18:06.659Z,22.17
2019-04-14T06:20:35.597Z,22.57
2019-04-14T06:23:04.425Z,21.63
2019-04-14T06:25:36.200Z,22.23
2019-04-14T06:28:04.100Z,21.30
2019-04-14T06:30:55.173Z,20.63
2019-04-14T06:33:45.720Z,20.53
2019-04-14T06:36:33.751Z,20.70
2019-04-14T06:39:09.256Z,20.77
2019-04-14T06:41:39.023Z,19.90
2019-04-14T06:44:07.896Z,21.13
2019-04-14T06:46:37.172Z,22.10
2019-04-14T06:49:06.247Z,21.10
2019-04-14T06:51:35.405Z,21.37
2019-04-14T06:54:04.384Z,20.63
2019-04-14T06:56:33.521Z,22.07
2019-04-14T06:59:06.697Z,22.03
2019-04-14T07:01:35.599Z,21.43
2019-04-14T07:04:04.661Z,22.53
2019-04-14T07:06:35.609Z,22.87
2019-04-14T07:09:06.342Z,22.30
2019-04-14T07:11:36.632Z,22.67
2019-04-14T07:14:05.690Z,23.53
2019-04-14T07:16:34.651Z,22.43
2019-04-14T07:19:10.780Z,23.30
2019-04-14T07:21:39.957Z,24.43
2019-04-14T07:24:09.184Z,23.83
2019-04-14T07:26:40.386Z,21.53
2019-04-14T07:29:09.586Z,24.40
2019-04-14T07:31:58.918Z,23.80
2019-04-14T07:34:45.462Z,23.63
2019-04-14T07:37:27.780Z,23.53
2019-04-14T07:40:13.127Z,22.67
2019-04-14T07:42:46.791Z,23.67
2019-04-14T07:45:25.345Z,24.10
2019-04-14T07:48:03.457Z,24.13
2019-04-14T07:50:46.092Z,23.47
2019-04-14T07:53:32.845Z,24.30
2019-04-14T07:56:15.930Z,22.70
2019-04-14T07:58:59.211Z,24.20
2019-04-14T08:01:36.598Z,23.57
2019-04-14T08:04:15.192Z,23.73
2019-04-14T08:06:49.884Z,22.93
2019-04-14T08:09:19.552Z,25.13
2019-04-14T08:11:48.421Z,24.90
2019-04-14T08:14:23.537Z,24.83
2019-04-14T08:16:52.341Z,24.60
2019-04-14T08:19:22.452Z,23.57
2019-04-14T08:21:51.546Z,23.93
2019-04-14T08:24:20.441Z,23.83
2019-04-14T08:26:50.155Z,24.20
2019-04-14T08:29:19.133Z,25.23
2019-04-14T08:31:48.046Z,22.43
2019-04-14T08:34:16.952Z,23.17
2019-04-14T08:36:46.469Z,23.40
2019-04-14T08:39:17.563Z,23.37
2019-04-14T08:42:21.264Z,22.40
2019-04-14T08:44:51.717Z,23.10
2019-04-14T08:47:54.840Z,23.13
2019-04-14T08:50:39.695Z,23.23
2019-04-14T08:53:32.322Z,23.00
2019-04-14T08:56:41.853Z,23.50
2019-04-14T08:59:13.341Z,24.37
2019-04-14T09:02:07.276Z,23.83
2019-04-14T09:04:40.230Z,24.27
2019-04-14T09:07:25.303Z,23.03
2019-04-14T09:10:06.277Z,24.00
2019-04-14T09:12:54.970Z,25.33
2019-04-14T09:15:24.613Z,24.33
2019-04-14T09:17:55.517Z,24.73
2019-04-14T09:20:24.329Z,23.80
2019-04-14T09:23:17.598Z,24.83
2019-04-14T09:25:59.882Z,24.07
2019-04-14T09:28:30.548Z,24.07
2019-04-14T09:30:59.421Z,24.23
2019-04-14T09:33:30.926Z,23.90
2019-04-14T09:35:59.943Z,23.70
2019-04-14T09:38:28.896Z,23.00
2019-04-14T09:40:57.852Z,24.17
2019-04-14T09:43:26.772Z,23.47
2019-04-14T09:45:56.308Z,23.80
2019-04-14T09:48:27.260Z,24.03
2019-04-14T09:51:04.594Z,23.67
2019-04-14T09:53:28.234Z,23.50
2019-04-14T09:55:57.685Z,23.63
2019-04-14T09:58:26.868Z,22.83
2019-04-14T10:00:58.911Z,22.23
2019-04-14T10:03:28.897Z,23.83
2019-04-14T10:05:58.965Z,23.00
2019-04-14T10:08:31.159Z,22.10
2019-04-14T10:11:02.107Z,23.53
2019-04-14T10:13:32.471Z,22.80
2019-04-14T10:16:03.113Z,23.83
2019-04-14T10:18:32.289Z,23.87
2019-04-14T10:21:16.771Z,22.37
2019-04-14T10:23:39.994Z,23.43
2019-04-14T10:26:18.066Z,23.47
2019-04-14T10:28:50.806Z,24.10
2019-04-14T10:32:21.090Z,22.33
2019-04-14T10:49:42.822Z,21.60
2019-04-14T10:52:29.758Z,21.60
2019-04-14T10:55:07.803Z,20.80
2019-04-14T10:57:37.377Z,21.73
2019-04-14T11:00:13.658Z,20.73
2019-04-14T11:02:46.211Z,21.63
2019-04-14T11:05:31.822Z,20.30
2019-04-14T11:08:08.925Z,20.30
2019-04-14T11:10:48.347Z,21.50
2019-04-14T11:13:23.059Z,19.93
2019-04-14T11:16:20.120Z,20.77
2019-04-14T11:18:49.641Z,20.00
2019-04-14T11:21:25.617Z,20.23
2019-04-14T11:25:27.424Z,20.03
2019-04-14T11:27:21.570Z,19.27
2019-04-14T11:29:59.941Z,20.43
2019-04-14T11:33:07.968Z,19.77
2019-04-14T11:35:47.691Z,19.37
2019-04-14T11:38:37.147Z,19.23
2019-04-14T11:48:30.387Z,18.70
2019-04-14T11:58:55.775Z,19.10
2019-04-14T12:01:48.458Z,18.77
2019-04-14T12:05:02.958Z,19.23
2019-04-14T12:08:02.142Z,19.27
2019-04-14T12:14:12.608Z,19.20
2019-04-14T12:16:52.027Z,20.13
2019-04-14T12:19:25.425Z,20.73
2019-04-14T12:22:07.685Z,19.93
2019-04-14T12:24:36.653Z,18.47
2019-04-14T12:27:12.809Z,18.70
2019-04-14T12:29:48.535Z,19.03
2019-04-14T12:32:22.657Z,18.03
2019-04-14T12:34:52.487Z,18.20
2019-04-14T12:37:37.092Z,18.63
2019-04-14T12:40:07.386Z,18.07
2019-04-14T12:43:08.387Z,18.10
2019-04-14T12:45:50.487Z,17.77
2019-04-14T12:48:34.974Z,18.10
2019-04-14T12:51:05.278Z,17.93
2019-04-14T12:53:35.911Z,17.30
2019-04-14T12:56:08.750Z,17.60
2019-04-14T12:58:53.969Z,17.50
2019-04-14T13:01:35.242Z,17.47
2019-04-14T13:04:12.023Z,18.13
2019-04-14T13:06:44.726Z,17.53
2019-04-14T13:09:17.110Z,16.70
2019-04-14T13:11:46.594Z,16.60
2019-04-14T13:14:19.834Z,16.83
2019-04-14T13:16:49.172Z,16.70
2019-04-14T13:19:27.318Z,16.00
2019-04-14T13:22:05.680Z,16.07
2019-04-14T13:24:33.300Z,15.63
2019-04-14T13:27:04.318Z,16.13
2019-04-14T13:29:36.853Z,15.53
2019-04-14T13:32:09.215Z,15.93
2019-04-14T13:34:45.297Z,15.93
2019-04-14T13:37:34.851Z,15.40
2019-04-14T13:41:19.170Z,15.73
2019-04-14T13:43:48.792Z,15.23
2019-04-14T13:46:23.632Z,15.97
2019-04-14T13:48:55.702Z,15.83
2019-04-14T13:51:27.768Z,16.07
2019-04-14T13:54:46.346Z,15.10
2019-04-14T13:57:17.688Z,14.53
2019-04-14T13:59:51.470Z,15.43
2019-04-14T14:02:45.139Z,14.67
2019-04-14T14:05:23.482Z,14.63
2019-04-14T14:08:30.584Z,15.23
2019-04-14T14:12:33.777Z,15.40
2019-04-14T14:15:08.954Z,14.10
2019-04-14T14:18:05.632Z,14.33
2019-04-14T14:21:05.736Z,14.70
2019-04-14T14:24:09.692Z,14.80
2019-04-14T14:26:50.751Z,15.27
2019-04-14T14:29:21.649Z,14.43
2019-04-14T14:31:55.691Z,14.33
2019-04-14T14:34:34.343Z,13.90
2019-04-14T14:37:05.210Z,13.87
2019-04-14T14:39:38.939Z,14.00
2019-04-14T14:42:10.908Z,14.67
2019-04-14T14:44:52.626Z,14.30
2019-04-14T14:47:45.837Z,13.93
2019-04-14T14:50:39.125Z,13.23
2019-04-14T14:53:12.347Z,13.90
2019-04-14T14:56:10.835Z,14.40
2019-04-14T15:01:43.683Z,13.43
2019-04-14T15:04:15.633Z,12.90
2019-04-14T15:06:55.906Z,13.57
2019-04-14T15:09:40.343Z,13.87
2019-04-14T15:12:20.735Z,12.70
2019-04-14T15:14:53.340Z,13.90
2019-04-14T15:17:38.446Z,13.30
2019-04-14T15:23:24.660Z,13.20
2019-04-14T15:25:54.526Z,13.43
2019-04-14T15:28:25.617Z,12.97
2019-04-14T15:30:55.080Z,13.03
2019-04-14T15:33:34.713Z,12.80
2019-04-14T15:36:35.469Z,13.07
2019-04-14T15:39:12.606Z,12.90
2019-04-14T15:41:56.399Z,13.13
2019-04-14T15:44:27.865Z,13.50
2019-04-14T15:47:03.113Z,13.27
2019-04-14T15:49:37.192Z,12.60
2019-04-14T15:52:06.745Z,12.80
2019-04-14T15:54:59.789Z,12.70
2019-04-14T15:58:01.688Z,12.80
2019-04-14T16:01:01.422Z,13.40
2019-04-14T16:14:55.104Z,13.60
2019-04-14T18:03:45.599Z,13.10
2019-04-14T18:07:27.317Z,12.90
2019-04-14T18:12:37.932Z,12.80
2019-04-14T18:17:42.389Z,13.30
2019-04-14T18:23:44.886Z,14.20
2019-04-14T18:30:36.617Z,13.27
2019-04-14T18:37:25.072Z,13.53
2019-04-14T18:41:39.845Z,13.30
2019-04-14T18:55:56.313Z,12.50
2019-04-14T18:59:11.767Z,12.83
2019-04-14T19:01:46.566Z,12.90
2019-04-14T19:08:31.976Z,14.50
2019-04-14T19:44:20.287Z,14.60
2019-04-14T20:21:16.524Z,14.83
2019-04-14T21:34:49.820Z,14.87
2019-04-14T21:39:03.390Z,16.23
2019-04-14T21:41:53.671Z,16.33
2019-04-14T21:44:35.964Z,16.10
2019-04-14T22:01:58.819Z,17.00
2019-04-14T22:03:11.217Z,16.73
2019-04-14T22:06:11.501Z,16.73
2019-04-14T22:09:20.329Z,16.63
2019-04-14T22:23:42.181Z,17.50
2019-04-14T22:27:36.746Z,17.50
2019-04-14T22:42:52.174Z,17.87
2019-04-14T22:46:20.615Z,18.73
2019-04-14T22:50:19.719Z,18.47
2019-04-14T23:16:31.386Z,18.50
2019-04-14T23:22:54.971Z,19.13
2019-04-14T23:26:18.214Z,18.53
2019-04-14T23:29:33.686Z,19.60
2019-04-14T23:33:12.931Z,19.20
2019-04-14T23:37:11.208Z,17.53
2019-04-14T23:38:44.662Z,18.53
2019-04-14T23:42:06.460Z,18.80
2019-04-14T23:44:55.962Z,18.60
2019-04-14T23:48:04.176Z,19.17
2019-04-14T23:53:59.361Z,18.33
2019-04-14T23:59:51.277Z,18.10
